createdAt,value
2023-05-03T00:09:02.404Z,77.02
2023-05-03T00:19:03.812Z,79.93
2023-05-03T00:29:05.146Z,76.34
2023-05-03T00:39:06.594Z,78.80
2023-05-03T00:49:08.018Z,81.88
2023-05-03T00:59:09.656Z,83.13
2023-05-03T01:09:22.919Z,82.36
2023-05-03T01:19:35.674Z,81.60
2023-05-03T01:29:37.138Z,76.33
2023-05-03T01:39:46.031Z,82.93
2023-05-03T01:49:47.742Z,85.42
2023-05-03T01:59:49.177Z,84.67
2023-05-03T02:09:50.978Z,81.64
2023-05-03T02:19:53.248Z,82.31
2023-05-03T02:29:55.218Z,83.76
2023-05-03T02:39:56.673Z,84.08
2023-05-03T02:49:58.116Z,80.29
2023-05-03T02:59:59.495Z,81.88
2023-05-03T03:10:01.441Z,83.51
2023-05-03T03:20:06.095Z,82.21
2023-05-03T03:30:08.467Z,78.70
2023-05-03T03:40:10.713Z,78.67
2023-05-03T03:50:12.167Z,79.40
2023-05-03T04:00:14.627Z,77.88
2023-05-03T04:10:16.078Z,79.63
2023-05-03T04:20:18.189Z,83.81
2023-05-03T04:30:20.002Z,80.24
2023-05-03T04:40:21.533Z,79.80
2023-05-03T04:50:22.938Z,79.34
2023-05-03T05:00:24.827Z,79.27
2023-05-03T05:10:26.505Z,79.95
2023-05-03T05:20:27.958Z,80.58
2023-05-03T05:30:29.677Z,80.13
2023-05-03T05:40:31.166Z,79.80
2023-05-03T05:50:32.938Z,79.55
2023-05-03T06:00:35.076Z,81.73
2023-05-03T06:10:36.519Z,77.82
2023-05-03T06:20:38.147Z,80.46
2023-05-03T06:30:39.673Z,75.63
2023-05-03T06:40:44.275Z,75.32
2023-05-03T06:50:45.627Z,74.40
2023-05-03T07:00:46.989Z,71.26
2023-05-03T07:10:48.334Z,69.81
2023-05-03T07:20:49.872Z,67.84
2023-05-03T07:30:52.133Z,67.91
2023-05-03T07:40:53.549Z,68.33
2023-05-03T07:50:54.959Z,64.78
2023-05-03T08:00:56.539Z,63.51
2023-05-03T08:10:58.138Z,62.97
2023-05-03T08:20:59.774Z,62.64
2023-05-03T08:31:04.699Z,59.41
2023-05-03T08:41:17.294Z,62.54
2023-05-03T08:51:19.991Z,57.99
2023-05-03T09:01:21.496Z,58.53
2023-05-03T09:11:24.985Z,52.95
2023-05-03T09:21:27.741Z,55.34
2023-05-03T09:31:30.771Z,57.01
2023-05-03T09:41:32.130Z,54.96
2023-05-03T09:51:33.967Z,54.66
2023-05-03T10:01:36.054Z,54.38
2023-05-03T10:11:37.636Z,58.16
2023-05-03T10:21:59.066Z,57.07
2023-05-03T10:32:05.449Z,53.71
2023-05-03T10:42:08.938Z,56.31
2023-05-03T10:52:35.438Z,55.47
2023-05-03T11:02:50.837Z,56.17
2023-05-03T11:12:52.303Z,56.42
2023-05-03T11:22:53.827Z,55.05
2023-05-03T11:32:56.106Z,57.13
2023-05-03T11:43:00.774Z,56.88
2023-05-03T11:53:02.240Z,54.51
2023-05-03T12:03:04.027Z,54.41
2023-05-03T12:13:06.068Z,51.17
2023-05-03T12:23:10.205Z,51.63
2023-05-03T12:33:15.220Z,55.57
2023-05-03T12:43:17.276Z,51.83
2023-05-03T12:53:18.852Z,52.24
2023-05-03T13:03:22.296Z,50.50
2023-05-03T13:13:26.035Z,52.58
2023-05-03T13:23:27.577Z,49.13
2023-05-03T13:33:29.316Z,49.37
2023-05-03T13:43:30.869Z,47.56
2023-05-03T13:53:32.296Z,48.39
2023-05-03T14:03:33.985Z,50.58
2023-05-03T14:13:53.892Z,47.12
2023-05-03T14:23:57.407Z,49.65
2023-05-03T14:34:00.064Z,50.23
2023-05-03T14:44:03.332Z,48.33
2023-05-03T14:54:04.805Z,48.21
2023-05-03T15:04:07.826Z,50.79
2023-05-03T15:14:10.034Z,50.85
2023-05-03T15:24:11.495Z,48.00
2023-05-03T15:34:13.058Z,51.38
2023-05-03T15:44:14.955Z,49.79
2023-05-03T15:54:16.405Z,50.21
2023-05-03T16:04:17.858Z,47.59
2023-05-03T16:14:19.227Z,50.10
2023-05-03T16:24:21.484Z,50.04
2023-05-03T16:34:22.965Z,50.28
2023-05-03T16:44:24.901Z,51.87
2023-05-03T16:54:26.815Z,48.68
2023-05-03T17:04:29.300Z,49.88
2023-05-03T17:14:30.824Z,50.89
2023-05-03T17:24:33.669Z,51.29
2023-05-03T17:34:36.061Z,51.54
2023-05-03T17:44:37.883Z,51.36
2023-05-03T17:54:40.669Z,51.59
2023-05-03T18:04:42.174Z,49.92
2023-05-03T18:14:43.629Z,51.40
2023-05-03T18:24:45.271Z,51.87
2023-05-03T18:34:46.703Z,52.76
2023-05-03T18:44:48.595Z,52.54
2023-05-03T18:54:50.819Z,53.74
2023-05-03T19:04:52.687Z,52.85
2023-05-03T19:14:54.317Z,53.21
2023-05-03T19:24:55.889Z,54.41
2023-05-03T19:34:57.374Z,54.20
2023-05-03T19:44:59.788Z,54.84
2023-05-03T19:55:02.788Z,55.78
2023-05-03T20:05:05.074Z,55.86
2023-05-03T20:15:07.361Z,56.18
2023-05-03T20:25:09.285Z,56.21
2023-05-03T20:35:11.982Z,55.95
2023-05-03T20:45:13.473Z,56.55
2023-05-03T20:55:15.084Z,56.87
2023-05-03T21:05:16.424Z,57.01
2023-05-03T21:15:17.801Z,57.33
2023-05-03T21:25:19.614Z,57.56
2023-05-03T21:35:21.148Z,58.15
2023-05-03T21:45:23.078Z,57.95
2023-05-03T21:55:24.777Z,58.50
2023-05-03T22:05:26.620Z,58.79
2023-05-03T22:15:31.105Z,59.00
2023-05-03T22:25:32.608Z,59.85
2023-05-03T22:35:34.067Z,59.67
2023-05-03T22:45:36.444Z,60.16
2023-05-03T22:55:38.042Z,60.00
2023-05-03T23:05:39.496Z,60.82
2023-05-03T23:15:40.979Z,61.46
2023-05-03T23:25:42.964Z,60.92
2023-05-03T23:35:44.326Z,61.87
2023-05-03T23:45:45.860Z,61.82
2023-05-03T23:55:47.593Z,62.43
